createdAt,value
2023-03-26T00:04:25.572Z,79.16
2023-03-26T00:09:29.810Z,78.07
2023-03-26T00:14:32.674Z,77.80
2023-03-26T00:19:34.933Z,76.53
2023-03-26T00:24:37.590Z,76.02
2023-03-26T00:29:40.010Z,75.39
2023-03-26T00:34:42.499Z,75.21
2023-03-26T00:39:44.615Z,74.61
2023-03-26T00:44:46.911Z,74.89
2023-03-26T00:49:48.847Z,75.73
2023-03-26T00:54:52.140Z,75.67
2023-03-26T00:59:53.830Z,76.55
2023-03-26T01:04:58.618Z,76.50
2023-03-26T01:10:00.830Z,76.55
2023-03-26T01:15:04.520Z,76.64
2023-03-26T01:20:12.772Z,76.74
2023-03-26T01:25:14.601Z,76.68
2023-03-26T01:30:17.103Z,76.45
2023-03-26T01:35:32.661Z,76.33
2023-03-26T01:41:14.118Z,76.21
2023-03-26T01:46:16.580Z,75.86
2023-03-26T01:51:30.304Z,76.43
2023-03-26T01:56:40.886Z,75.89
2023-03-26T02:01:54.942Z,76.37
2023-03-26T02:07:05.871Z,77.03
2023-03-26T02:12:08.526Z,78.19
2023-03-26T02:17:10.913Z,78.54
2023-03-26T02:22:15.633Z,78.86
2023-03-26T02:27:18.965Z,78.84
2023-03-26T02:32:21.241Z,79.49
2023-03-26T02:37:22.958Z,79.84
2023-03-26T02:42:31.503Z,80.02
2023-03-26T02:47:33.859Z,80.75
2023-03-26T02:52:58.779Z,82.07
2023-03-26T02:58:01.913Z,82.04
2023-03-26T03:03:09.781Z,81.81
2023-03-26T03:08:30.115Z,81.73
2023-03-26T03:13:54.826Z,81.29
2023-03-26T03:18:59.648Z,81.76
2023-03-26T03:24:11.624Z,83.44
2023-03-26T03:29:19.685Z,84.31
2023-03-26T03:34:22.297Z,84.42
2023-03-26T03:39:26.157Z,83.99
2023-03-26T03:44:28.813Z,83.94
2023-03-26T03:49:30.784Z,84.13
2023-03-26T03:54:33.700Z,83.84
2023-03-26T04:00:11.689Z,83.09
2023-03-26T04:05:25.263Z,83.00
2023-03-26T04:10:27.442Z,83.42
2023-03-26T04:15:49.230Z,83.80
2023-03-26T04:20:50.955Z,83.72
2023-03-26T04:26:04.219Z,82.82
2023-03-26T04:31:29.464Z,82.24
2023-03-26T04:36:34.324Z,81.45
2023-03-26T04:41:36.348Z,81.01
2023-03-26T04:46:43.699Z,80.60
2023-03-26T04:51:52.844Z,79.90
2023-03-26T04:57:21.268Z,80.25
2023-03-26T05:02:32.543Z,80.03
2023-03-26T05:07:34.463Z,80.06
2023-03-26T05:12:36.294Z,79.61
2023-03-26T05:17:43.017Z,79.11
2023-03-26T05:22:53.370Z,79.79
2023-03-26T05:28:02.612Z,79.82
2023-03-26T05:33:14.333Z,79.62
2023-03-26T05:38:25.536Z,80.24
2023-03-26T05:43:28.619Z,81.00
2023-03-26T05:48:46.645Z,80.85
2023-03-26T05:53:48.357Z,80.73
2023-03-26T05:59:18.930Z,80.52
2023-03-26T06:04:46.732Z,80.31
2023-03-26T06:10:03.912Z,79.30
2023-03-26T06:15:06.582Z,78.77
2023-03-26T06:20:37.665Z,78.03
2023-03-26T06:25:49.912Z,77.62
2023-03-26T06:31:03.893Z,76.80
2023-03-26T06:36:15.014Z,77.27
2023-03-26T06:41:17.104Z,77.18
2023-03-26T06:46:39.071Z,76.89
2023-03-26T06:52:09.527Z,75.91
2023-03-26T06:57:14.059Z,75.44
2023-03-26T07:02:35.745Z,75.02
2023-03-26T07:07:57.967Z,74.73
2023-03-26T07:13:17.904Z,74.37
2023-03-26T07:18:55.359Z,74.28
2023-03-26T07:24:00.917Z,73.33
2023-03-26T07:29:45.642Z,72.50
2023-03-26T07:35:10.448Z,71.90
2023-03-26T07:40:59.464Z,71.84
2023-03-26T07:46:27.569Z,72.02
2023-03-26T07:51:48.921Z,72.06
2023-03-26T07:57:07.043Z,70.80
2023-03-26T08:02:49.844Z,71.97
2023-03-26T08:08:33.626Z,72.16
2023-03-26T08:14:17.394Z,71.86
2023-03-26T08:19:43.481Z,72.68
2023-03-26T08:25:19.040Z,72.57
2023-03-26T08:30:23.274Z,72.42
2023-03-26T08:35:26.339Z,71.98
2023-03-26T08:40:52.893Z,71.27
2023-03-26T08:46:03.906Z,71.61
2023-03-26T08:51:40.836Z,71.11
2023-03-26T08:56:48.073Z,71.01
2023-03-26T09:02:20.771Z,69.92
2023-03-26T09:07:49.830Z,69.94
2023-03-26T09:13:00.417Z,69.12
2023-03-26T09:18:16.885Z,69.38
2023-03-26T09:23:30.539Z,68.65
2023-03-26T09:28:53.925Z,67.75
2023-03-26T09:34:20.278Z,67.15
2023-03-26T09:39:43.805Z,66.18
2023-03-26T09:45:02.222Z,65.93
2023-03-26T09:50:41.012Z,66.00
2023-03-26T09:55:51.073Z,63.66
2023-03-26T10:01:15.843Z,62.95
2023-03-26T10:06:22.834Z,62.31
2023-03-26T10:11:35.453Z,59.96
2023-03-26T10:16:50.675Z,60.04
2023-03-26T10:21:59.617Z,60.17
2023-03-26T10:27:08.456Z,59.95
2023-03-26T10:32:37.956Z,59.10
2023-03-26T10:38:06.292Z,58.86
2023-03-26T10:43:20.746Z,57.24
2023-03-26T10:48:27.112Z,56.91
2023-03-26T10:53:32.271Z,56.06
2023-03-26T10:58:48.382Z,55.29
2023-03-26T11:03:54.311Z,53.64
2023-03-26T11:09:03.043Z,51.81
2023-03-26T11:14:42.447Z,52.74
2023-03-26T11:20:16.083Z,51.52
2023-03-26T11:25:35.862Z,51.27
2023-03-26T11:30:44.921Z,52.34
2023-03-26T11:35:49.608Z,53.78
2023-03-26T11:40:55.320Z,55.05
2023-03-26T11:46:19.198Z,54.02
2023-03-26T11:51:36.783Z,54.77
2023-03-26T11:57:06.021Z,53.79
2023-03-26T12:02:11.672Z,53.75
2023-03-26T12:07:34.248Z,53.48
2023-03-26T12:12:41.418Z,52.93
2023-03-26T12:17:43.392Z,52.86
2023-03-26T12:22:47.932Z,53.24
2023-03-26T12:28:04.860Z,51.19
2023-03-26T12:33:16.321Z,51.94
2023-03-26T12:38:33.328Z,51.09
2023-03-26T12:44:53.000Z,52.29
2023-03-26T12:49:14.210Z,50.51
2023-03-26T12:54:28.891Z,51.31
2023-03-26T12:59:45.643Z,51.49
2023-03-26T13:05:13.261Z,52.77
2023-03-26T13:10:33.789Z,53.08
2023-03-26T13:15:47.580Z,55.07
2023-03-26T13:21:02.819Z,54.42
2023-03-26T13:26:35.160Z,54.28
2023-03-26T13:31:38.054Z,52.43
2023-03-26T13:37:04.984Z,53.84
2023-03-26T13:42:12.860Z,54.66
2023-03-26T13:47:18.224Z,53.54
2023-03-26T13:52:26.998Z,54.43
2023-03-26T13:57:33.336Z,54.31
2023-03-26T14:02:38.153Z,55.04
2023-03-26T14:08:04.286Z,57.57
2023-03-26T14:13:24.351Z,60.45
2023-03-26T14:18:41.677Z,61.25
2023-03-26T14:23:58.600Z,62.59
2023-03-26T14:29:12.350Z,67.36
2023-03-26T14:34:42.687Z,69.20
2023-03-26T14:40:15.132Z,71.44
2023-03-26T14:45:32.095Z,71.57
2023-03-26T14:50:54.683Z,71.74
2023-03-26T14:56:24.126Z,71.47
2023-03-26T15:01:57.971Z,70.70
2023-03-26T15:07:45.853Z,70.23
2023-03-26T15:12:54.588Z,72.76
2023-03-26T15:18:10.257Z,72.60
2023-03-26T15:23:49.070Z,72.92
2023-03-26T15:29:09.980Z,76.83
2023-03-26T15:34:25.703Z,76.08
2023-03-26T15:39:27.739Z,78.31
2023-03-26T15:44:50.937Z,80.26
2023-03-26T15:50:20.317Z,80.69
2023-03-26T15:55:41.371Z,80.88
2023-03-26T16:01:21.429Z,83.32
2023-03-26T16:06:57.495Z,83.34
2023-03-26T16:12:03.985Z,84.58
2023-03-26T16:17:06.543Z,85.28
2023-03-26T16:22:14.583Z,85.16
2023-03-26T16:27:16.218Z,86.79
2023-03-26T16:32:29.836Z,87.85
2023-03-26T16:37:31.909Z,88.53
2023-03-26T16:42:42.210Z,89.01
2023-03-26T16:48:21.027Z,89.66
2023-03-26T16:53:46.661Z,90.06
2023-03-26T16:58:58.651Z,90.83
2023-03-26T17:04:25.776Z,91.14
2023-03-26T17:09:37.961Z,92.48
2023-03-26T17:14:48.950Z,92.05
2023-03-26T17:20:47.515Z,91.23
2023-03-26T17:26:07.171Z,90.47
2023-03-26T17:31:58.061Z,91.05
2023-03-26T17:37:01.152Z,91.33
2023-03-26T17:42:25.682Z,91.13
2023-03-26T17:47:35.707Z,89.71
2023-03-26T17:52:48.967Z,90.07
2023-03-26T17:57:53.769Z,90.99
2023-03-26T18:02:58.144Z,90.70
2023-03-26T18:08:37.433Z,91.59
2023-03-26T18:14:09.814Z,92.71
2023-03-26T18:19:19.300Z,92.30
2023-03-26T18:24:22.573Z,92.18
2023-03-26T18:29:32.558Z,92.55
2023-03-26T18:34:36.540Z,93.30
2023-03-26T18:39:38.444Z,92.27
2023-03-26T18:44:41.125Z,92.51
2023-03-26T18:49:45.592Z,93.76
2023-03-26T18:54:49.452Z,93.99
2023-03-26T18:59:52.641Z,93.26
2023-03-26T19:04:54.508Z,93.06
2023-03-26T19:09:56.767Z,94.34
2023-03-26T19:15:07.807Z,94.58
2023-03-26T19:20:19.489Z,94.44
2023-03-26T19:25:24.056Z,94.01
2023-03-26T19:30:34.293Z,94.49
2023-03-26T19:35:37.770Z,93.09
2023-03-26T19:40:42.230Z,91.90
2023-03-26T19:45:59.283Z,91.45
2023-03-26T19:51:05.409Z,91.51
2023-03-26T19:56:15.980Z,92.58
2023-03-26T20:01:23.699Z,91.97
2023-03-26T20:11:52.534Z,92.72
2023-03-26T20:16:54.353Z,93.18
2023-03-26T20:21:56.433Z,93.37
2023-03-26T20:26:58.086Z,93.38
2023-03-26T20:31:59.737Z,94.54
2023-03-26T20:37:02.063Z,93.85
2023-03-26T20:42:03.757Z,93.79
2023-03-26T20:47:05.427Z,93.16
2023-03-26T20:52:07.072Z,93.25
2023-03-26T20:57:11.816Z,92.85
2023-03-26T21:02:13.863Z,93.17
2023-03-26T21:07:18.443Z,93.86
2023-03-26T21:12:20.565Z,92.95
2023-03-26T21:17:23.176Z,93.70
2023-03-26T21:22:32.048Z,93.53
2023-03-26T21:27:50.321Z,93.54
2023-03-26T21:32:52.146Z,94.31
2023-03-26T21:37:54.614Z,94.01
2023-03-26T21:42:56.684Z,93.85
2023-03-26T21:47:58.544Z,93.65
2023-03-26T21:53:00.598Z,94.27
2023-03-26T21:58:29.235Z,93.87
2023-03-26T22:03:43.111Z,93.75
2023-03-26T22:08:45.132Z,92.84
2023-03-26T22:13:46.780Z,92.81
2023-03-26T22:18:48.385Z,93.12
2023-03-26T22:23:53.961Z,92.68
2023-03-26T22:28:55.659Z,93.79
2023-03-26T22:33:57.319Z,94.55
2023-03-26T22:38:58.971Z,95.30
2023-03-26T22:44:09.275Z,96.01
2023-03-26T22:49:14.967Z,95.50
2023-03-26T22:54:16.828Z,96.18
2023-03-26T22:59:18.686Z,96.35
2023-03-26T23:04:30.678Z,96.69
2023-03-26T23:09:32.742Z,97.53
2023-03-26T23:14:34.401Z,97.52
2023-03-26T23:19:37.055Z,98.10
2023-03-26T23:24:39.418Z,97.78
2023-03-26T23:29:42.236Z,98.63
2023-03-26T23:34:52.051Z,99.12
2023-03-26T23:39:54.129Z,99.07
2023-03-26T23:44:56.914Z,99.62
2023-03-26T23:49:58.679Z,99.00
2023-03-26T23:55:01.214Z,99.14
